Virtual Airlines Manager

 METAR AND TAF INFORMATION
METAR FOR LSGS
ADDS - METARS form results

(0426 UTC 23 October 2017)
Data provider http://aviationweather.gov/adds/metars/
 
METAR text: LSGS 230420Z AUTO VRB03KT 9999 -RA BKN/// 07/04 Q1023
Conditions at: LSGS (SION (MIL/CIV/AU, CH) observed 0420 UTC 23 October 2017
Temperature: 7.0°C (45°F)
Dewpoint: 4.0°C (39°F) [RH = 81%]
Pressure (altimeter): 30.21 inches Hg (1023.0 mb)
Winds: variable direction winds at 3 MPH (3 knots; 1.6 m/s)
Visibility: 6 or more miles (10+ km)
Ceiling: unknown
Clouds: missing
Weather: -RA  (light rain)

METAR text: LSGS 230350Z AUTO VRB02KT 9999 -RA BKN/// 07/03 Q1023
Conditions at: LSGS (SION (MIL/CIV/AU, CH) observed 0350 UTC 23 October 2017
Temperature: 7.0°C (45°F)
Dewpoint: 3.0°C (37°F) [RH = 76%]
Pressure (altimeter): 30.21 inches Hg (1023.0 mb)
Winds: variable direction winds at 2 MPH (2 knots; 1.0 m/s)
Visibility: 6 or more miles (10+ km)
Ceiling: unknown
Clouds: missing
Weather: -RA  (light rain)

Forecast for: LSGS (SION (MIL/CIV/AU, CH)
Text: TAF LSGS 230225Z 2303/2312 VRB03KT 9999 -RA SCT030 BKN050
Forecast period: 0300 to 1200 UTC 23 October 2017
Forecast type: FROM: standard forecast or significant change
Winds: variable direction winds at 3 MPH (3 knots; 1.6 m/s)
Visibility: 6 or more miles (10+ km)
Ceiling: 5000 feet AGL
Clouds: scattered clouds at 3000 feet AGL
broken clouds at 5000 feet AGL
Weather: -RA  (light rain)
Text: TEMPO 2303/2312 RA
Forecast period: 0300 to 1200 UTC 23 October 2017
Forecast type: TEMPORARY: The following changes expected for less than half the time period
Weather: RA  (rain)

 AIRPORT MAP

 RUNWAY INFORMATION
Runway 07 Runway length 0 ft Runway width 0 ft
Runway elevation 1578 ft Runway displaced threshold 0 ft Runway heading 0
Runway 25 Runway length 0 ft Runway width 0 ft
Runway elevation 1581 ft Runway displaced threshold 0 ft Runway heading 0
Runway 07L Runway length 1820 ft Runway width 98 ft
Runway elevation 1578 ft Runway displaced threshold 0 ft Runway heading 73
Runway 25R Runway length 1820 ft Runway width 98 ft
Runway elevation 1581 ft Runway displaced threshold 328 ft Runway heading 253
Runway 07R Runway length 6562 ft Runway width 131 ft
Runway elevation 1580 ft Runway displaced threshold 164 ft Runway heading 73
Runway 25L Runway length 6562 ft Runway width 131 ft
Runway elevation 1585 ft Runway displaced threshold 164 ft Runway heading 253

 AIRPORT FREQUENCIES
Type A/G Name SWISS MILI Frequency 134.275 MHZ
Type APP Name RADAR Frequency 126.825 MHZ
Type GND Name GND Frequency 121.7 MHZ
Type INFO Name INFO Frequency 122.35 MHZ
Type TWR Name TWR Frequency 118.275 MHZ

 AIRPORT NEAR NAVIGATION AIDS
Type VOR-DME Name Montana Frequency 115850 KHZ
Type VOR-DME Name Sion Frequency 112150 KHZ



Powered by Virtual Airlines Manager [v2.6.2]